Time;durP1;ratioP1;P1;durP2;ratioP2;P2;SDS_P1;SDS_P2;PMS_P1;PMS_P2;Temp;Humidity;BMP_temperature;BMP_pressure;BME280_temperature;BME280_humidity;BME280_pressure;Samples;Min_cycle;Max_cycle;Signal;HPM_P1;HPM_P2
2023/04/18 00:03:30;;;;;;;;;;;;;;;9.00;67.12;103058.44;20796537;28;19937;-56
2023/04/18 00:13:52;;;;;;;;;;;;;;;8.99;67.42;103048.09;20790507;28;19979;-55
2023/04/18 00:24:13;;;;;;;;;;;;;;;8.91;68.20;103041.97;20785794;28;19925;-57
2023/04/18 00:34:35;;;;;;;;;;;;;;;8.93;69.13;103048.03;20787424;28;19929;-55
2023/04/18 00:44:56;;;;;;;;;;;;;;;8.88;69.14;103041.94;20786994;28;19933;-56
2023/04/18 00:55:19;;;;;;;;;;;;;;;8.91;69.75;103042.84;20800237;28;20356;-55
2023/04/18 01:05:40;;;;;;;;;;;;;;;8.88;69.90;103032.47;20809380;28;20327;-56
2023/04/18 01:16:02;;;;;;;;;;;;;;;8.93;70.00;103041.16;20809416;28;19929;-54
2023/04/18 01:26:23;;;;;;;;;;;;;;;8.88;70.75;103040.22;20817016;28;19935;-56
2023/04/18 01:36:44;;;;;;;;;;;;;;;8.83;71.00;103034.13;20785478;28;19929;-56
2023/04/18 01:47:06;;;;;;;;;;;;;;;8.82;71.64;103040.16;20795397;28;20288;-56
2023/04/18 01:57:27;;;;;;;;;;;;;;;8.82;72.13;103037.56;20804633;28;20586;-57
2023/04/18 02:07:49;;;;;;;;;;;;;;;8.80;72.80;103043.56;20802332;28;19925;-54
2023/04/18 02:18:11;;;;;;;;;;;;;;;8.82;72.68;103044.44;20808595;28;20002;-55
2023/04/18 02:28:32;;;;;;;;;;;;;;;8.77;72.78;103039.19;20804550;28;19933;-54
2023/04/18 02:38:54;;;;;;;;;;;;;;;8.69;72.89;103045.13;20803391;28;19956;-54
2023/04/18 02:49:15;;;;;;;;;;;;;;;8.73;73.32;103047.78;20792515;28;19929;-54
2023/04/18 02:59:36;;;;;;;;;;;;;;;8.66;73.58;103056.25;20795299;28;19932;-56
2023/04/18 03:09:58;;;;;;;;;;;;;;;8.64;74.19;103062.25;20804220;28;19961;-56
2023/04/18 03:20:20;;;;;;;;;;;;;;;8.66;75.19;103056.25;20805804;28;19925;-54
2023/04/18 03:30:41;;;;;;;;;;;;;;;8.66;73.94;103061.41;20803664;28;19929;-55
2023/04/18 03:41:03;;;;;;;;;;;;;;;8.66;74.30;103069.16;20798232;28;19929;-56
2023/04/18 03:51:24;;;;;;;;;;;;;;;8.58;74.19;103077.66;20800886;28;19956;-54
2023/04/18 04:01:46;;;;;;;;;;;;;;;8.52;74.12;103072.41;20804195;28;20309;-55
2023/04/18 04:12:07;;;;;;;;;;;;;;;8.45;73.88;103081.78;20797622;28;19931;-54
2023/04/18 04:22:29;;;;;;;;;;;;;;;8.42;74.43;103089.47;20796008;28;20016;-55
2023/04/18 04:32:50;;;;;;;;;;;;;;;8.41;75.16;103087.72;20783255;28;19971;-55
2023/04/18 04:43:14;;;;;;;;;;;;;;;8.43;74.32;103095.47;20793664;28;20011;-54
2023/04/18 04:53:35;;;;;;;;;;;;;;;8.45;73.58;103093.78;20801123;28;19972;-57
2023/04/18 05:03:57;;;;;;;;;;;;;;;8.41;73.12;103105.78;20797401;28;19929;-56
2023/04/18 05:14:19;;;;;;;;;;;;;;;8.43;72.87;103109.25;20781030;28;19929;-56
2023/04/18 05:24:40;;;;;;;;;;;;;;;8.48;72.67;103097.28;20791482;28;20005;-57
2023/04/18 05:35:02;;;;;;;;;;;;;;;8.46;72.48;103109.28;20796579;28;19991;-56
2023/04/18 05:45:24;;;;;;;;;;;;;;;8.40;73.36;103114.38;20808374;28;19948;-57
2023/04/18 05:55:47;;;;;;;;;;;;;;;8.33;73.39;103122.88;20807893;28;20364;-55
2023/04/18 06:06:09;;;;;;;;;;;;;;;8.46;73.59;103135.09;20809074;28;20368;-56
2023/04/18 06:16:30;;;;;;;;;;;;;;;8.57;73.21;103137.84;20799870;28;19926;-57
2023/04/18 06:26:53;;;;;;;;;;;;;;;8.64;72.79;103140.56;20803982;28;19925;-57
2023/04/18 06:37:15;;;;;;;;;;;;;;;8.69;72.00;103146.66;20791483;28;19926;-57
2023/04/18 06:47:37;;;;;;;;;;;;;;;8.94;71.63;103148.72;20792965;28;19929;-57
2023/04/18 06:57:59;;;;;;;;;;;;;;;9.22;70.76;103152.56;20787961;28;19925;-56
2023/04/18 07:08:20;;;;;;;;;;;;;;;9.51;70.27;103153.78;20777062;28;19925;-56
2023/04/18 07:18:42;;;;;;;;;;;;;;;9.71;69.79;103154.00;20799454;28;19979;-57
2023/04/18 07:29:03;;;;;;;;;;;;;;;9.82;68.63;103152.41;20804157;28;19933;-57
2023/04/18 07:39:24;;;;;;;;;;;;;;;10.08;68.81;103154.41;20804510;28;19925;-55
2023/04/18 07:49:46;;;;;;;;;;;;;;;10.32;66.91;103163.28;20795438;28;19929;-56
2023/04/18 08:00:08;;;;;;;;;;;;;;;10.46;66.41;103153.88;20799348;28;19925;-55
2023/04/18 08:10:29;;;;;;;;;;;;;;;10.51;66.54;103150.47;20784751;28;19932;-56
2023/04/18 08:20:50;;;;;;;;;;;;;;;10.69;64.22;103166.19;20803070;28;19978;-56
2023/04/18 08:31:13;;;;;;;;;;;;;;;10.83;65.15;103155.88;20794077;28;20269;-56
2023/04/18 08:41:38;;;;;;;;;;;;;;;11.11;65.29;103153.47;20796005;28;19972;-55
2023/04/18 08:52:00;;;;;;;;;;;;;;;11.24;62.62;103171.69;20783049;28;19925;-57
2023/04/18 09:02:33;;;;;;;;;;;;;;;11.42;62.27;103158.81;20783738;28;20353;-56
2023/04/18 09:12:57;;;;;;;;;;;;;;;11.74;63.23;103162.38;20803409;28;20415;-55
2023/04/18 09:23:23;;;;;;;;;;;;;;;11.91;59.35;103160.72;20811583;28;19970;-56
2023/04/18 09:33:55;;;;;;;;;;;;;;;12.07;63.00;103163.34;20794145;28;19971;-57
2023/04/18 09:44:18;;;;;;;;;;;;;;;12.35;61.72;103153.84;20807822;28;19929;-56
2023/04/18 09:54:43;;;;;;;;;;;;;;;12.61;60.37;103157.31;20792782;28;19983;-57
2023/04/18 10:05:06;;;;;;;;;;;;;;;12.78;59.30;103152.09;20804217;28;19927;-56
2023/04/18 10:15:29;;;;;;;;;;;;;;;12.92;61.43;103148.59;20802369;28;19925;-56
2023/04/18 10:25:51;;;;;;;;;;;;;;;12.93;60.77;103137.31;20804747;28;19956;-57
2023/04/18 10:36:14;;;;;;;;;;;;;;;13.33;59.04;103129.44;20802787;28;20449;-57
2023/04/18 10:46:37;;;;;;;;;;;;;;;13.69;62.36;103122.28;20802667;28;19929;-57
2023/04/18 10:57:03;;;;;;;;;;;;;;;13.78;62.00;103114.44;20805909;28;19925;-57
2023/04/18 11:07:31;;;;;;;;;;;;;;;13.57;61.49;103108.50;20801129;28;19933;-57
2023/04/18 11:17:57;;;;;;;;;;;;;;;13.65;60.79;103106.69;20802444;28;19925;-57
2023/04/18 11:28:20;;;;;;;;;;;;;;;14.00;60.86;103109.94;20805892;28;19943;-58
2023/04/18 11:38:41;;;;;;;;;;;;;;;14.00;62.25;103112.53;20791029;28;19963;-57
2023/04/18 11:49:03;;;;;;;;;;;;;;;14.40;60.11;103100.94;20798609;28;19929;-57
2023/04/18 11:59:25;;;;;;;;;;;;;;;14.24;57.97;103104.53;20790370;28;19929;-57
2023/04/18 12:09:46;;;;;;;;;;;;;;;13.96;57.17;103109.09;20783968;28;20404;-57
2023/04/18 12:20:08;;;;;;;;;;;;;;;14.02;61.69;103098.66;20801440;28;19925;-57
2023/04/18 12:30:31;;;;;;;;;;;;;;;13.99;62.34;103103.00;20795518;28;19925;-58
2023/04/18 12:40:52;;;;;;;;;;;;;;;14.22;62.86;103098.47;20792879;28;19925;-56
2023/04/18 12:51:14;;;;;;;;;;;;;;;14.46;59.96;103094.81;20799408;28;20028;-57
2023/04/18 13:01:35;;;;;;;;;;;;;;;14.34;61.84;103094.94;20801233;28;20399;-58
2023/04/18 13:11:57;;;;;;;;;;;;;;;14.02;61.54;103092.56;20798891;28;19979;-55
2023/04/18 13:22:19;;;;;;;;;;;;;;;14.07;61.60;103096.84;20800231;28;19932;-56
2023/04/18 13:32:42;;;;;;;;;;;;;;;13.98;64.01;103085.66;20790205;28;19925;-57
2023/04/18 13:43:04;;;;;;;;;;;;;;;14.76;62.14;103069.28;20802960;28;19925;-57
2023/04/18 13:53:25;;;;;;;;;;;;;;;14.83;61.71;103070.94;20802219;28;19932;-57
2023/04/18 14:03:49;;;;;;;;;;;;;;;14.79;60.54;103057.97;20800966;28;19925;-57
2023/04/18 14:14:10;;;;;;;;;;;;;;;14.66;60.42;103072.03;20804294;28;19925;-57
2023/04/18 14:24:34;;;;;;;;;;;;;;;15.29;60.24;103055.56;20794872;28;19979;-57
2023/04/18 14:34:55;;;;;;;;;;;;;;;15.55;58.38;103050.03;20798871;28;19979;-56
2023/04/18 14:45:16;;;;;;;;;;;;;;;15.75;54.80;103056.66;20800796;28;20411;-56
2023/04/18 14:55:38;;;;;;;;;;;;;;;16.29;59.13;103039.22;20796191;28;19925;-56
2023/04/18 15:05:59;;;;;;;;;;;;;;;16.16;56.84;103049.91;20801304;28;19979;-56
2023/04/18 15:16:20;;;;;;;;;;;;;;;16.42;60.22;103040.72;20788336;28;19933;-56
2023/04/18 15:26:42;;;;;;;;;;;;;;;15.57;59.46;103053.47;20796637;28;20395;-56
2023/04/18 15:37:03;;;;;;;;;;;;;;;15.04;60.69;103049.84;20794778;28;19979;-56
2023/04/18 15:47:25;;;;;;;;;;;;;;;14.93;61.26;103046.50;20780245;28;19936;-57
2023/04/18 15:57:47;;;;;;;;;;;;;;;15.45;59.90;103031.06;20799300;28;19925;-57
2023/04/18 16:08:08;;;;;;;;;;;;;;;15.90;54.69;103035.53;20788411;28;20027;-57
2023/04/18 16:18:30;;;;;;;;;;;;;;;15.83;60.28;103041.75;20791420;28;19929;-56
2023/04/18 16:28:51;;;;;;;;;;;;;;;15.51;60.62;103045.75;20781947;28;19933;-57
2023/04/18 16:39:14;;;;;;;;;;;;;;;15.81;55.98;103042.66;20793289;28;20384;-57
2023/04/18 16:49:36;;;;;;;;;;;;;;;15.89;60.66;103030.34;20794269;28;19930;-57
2023/04/18 17:00:00;;;;;;;;;;;;;;;15.74;62.44;103035.81;20805113;28;20561;-57
2023/04/18 17:10:22;;;;;;;;;;;;;;;15.33;60.79;103027.72;20786099;28;19963;-57
2023/04/18 17:20:43;;;;;;;;;;;;;;;14.96;62.78;103046.44;20787294;28;19936;-56
2023/04/18 17:31:05;;;;;;;;;;;;;;;14.69;60.28;103041.56;20808404;28;19983;-57
2023/04/18 17:41:26;;;;;;;;;;;;;;;14.46;65.02;103048.78;20812011;28;19952;-58
2023/04/18 17:51:48;;;;;;;;;;;;;;;14.29;65.11;103063.72;20813120;28;20427;-56
2023/04/18 18:02:10;;;;;;;;;;;;;;;14.15;65.88;103070.75;20804071;28;19925;-56
2023/04/18 18:12:34;;;;;;;;;;;;;;;13.92;66.42;103085.69;20803594;28;19926;-56
2023/04/18 18:22:59;;;;;;;;;;;;;;;13.74;65.79;103093.63;20805633;28;19929;-57
2023/04/18 18:33:20;;;;;;;;;;;;;;;13.50;66.83;103097.25;20803627;28;20269;-56
2023/04/18 18:43:42;;;;;;;;;;;;;;;13.33;66.47;103104.25;20808941;28;20319;-57
2023/04/18 18:54:03;;;;;;;;;;;;;;;13.20;67.51;103109.53;20808237;28;19933;-57
2023/04/18 19:04:25;;;;;;;;;;;;;;;13.06;67.70;103113.06;20780315;28;19933;-56
2023/04/18 19:14:48;;;;;;;;;;;;;;;12.99;68.33;103119.13;20797640;28;19929;-58
2023/04/18 19:25:09;;;;;;;;;;;;;;;12.93;67.92;103132.13;20794002;28;20380;-56
2023/04/18 19:35:31;;;;;;;;;;;;;;;12.82;68.03;103135.59;20797124;28;19960;-57
2023/04/18 19:45:52;;;;;;;;;;;;;;;12.75;68.50;103141.69;20799466;28;19983;-57
2023/04/18 19:56:15;;;;;;;;;;;;;;;12.61;69.16;103138.25;20795061;28;19936;-55
2023/04/18 20:06:37;;;;;;;;;;;;;;;12.48;68.71;103149.50;20784818;28;19932;-57
2023/04/18 20:16:58;;;;;;;;;;;;;;;12.39;68.64;103165.97;20796226;28;19933;-57
2023/04/18 20:27:20;;;;;;;;;;;;;;;12.28;68.85;103167.69;20809277;28;19925;-59
2023/04/18 20:37:41;;;;;;;;;;;;;;;12.16;68.83;103162.47;20799870;28;19975;-57
2023/04/18 20:48:03;;;;;;;;;;;;;;;12.07;69.68;103173.72;20782507;28;19933;-57
2023/04/18 20:58:24;;;;;;;;;;;;;;;12.00;69.67;103177.16;20789709;28;19929;-57
2023/04/18 21:08:46;;;;;;;;;;;;;;;11.87;69.65;103185.78;20812958;28;20308;-58
2023/04/18 21:19:08;;;;;;;;;;;;;;;11.68;69.86;103183.13;20819860;28;19971;-56
2023/04/18 21:29:29;;;;;;;;;;;;;;;11.57;69.88;103195.16;20804212;28;19929;-57
2023/04/18 21:39:51;;;;;;;;;;;;;;;11.38;69.93;103204.59;20797291;28;19971;-55
2023/04/18 21:50:12;;;;;;;;;;;;;;;11.33;69.95;103205.41;20808101;28;20331;-57
2023/04/18 22:00:33;;;;;;;;;;;;;;;11.30;70.07;103205.41;20810977;28;19929;-57
2023/04/18 22:10:59;;;;;;;;;;;;;;;11.22;70.08;103191.53;20805213;28;19929;-57
2023/04/18 22:21:20;;;;;;;;;;;;;;;11.10;70.28;103197.50;20803122;28;20427;-56
2023/04/18 22:31:41;;;;;;;;;;;;;;;10.98;71.00;103213.88;20804333;28;19925;-57
2023/04/18 22:42:03;;;;;;;;;;;;;;;10.90;70.51;103199.97;20805603;28;19929;-57
2023/04/18 22:52:25;;;;;;;;;;;;;;;10.81;69.89;103212.88;20802986;28;19925;-57
2023/04/18 23:02:46;;;;;;;;;;;;;;;10.75;69.80;103206.78;20803011;28;19949;-57
2023/04/18 23:13:07;;;;;;;;;;;;;;;10.68;69.70;103212.75;20809505;28;20349;-56
2023/04/18 23:23:29;;;;;;;;;;;;;;;10.57;69.40;103211.78;20795629;28;20596;-58
2023/04/18 23:33:50;;;;;;;;;;;;;;;10.52;70.22;103222.13;20803063;28;19975;-57
2023/04/18 23:44:12;;;;;;;;;;;;;;;10.38;70.88;103226.31;20795770;28;19959;-57
2023/04/18 23:54:33;;;;;;;;;;;;;;;10.09;72.61;103225.13;20797330;28;20280;-56
